Time;durP1;ratioP1;P1;durP2;ratioP2;P2;SDS_P1;SDS_P2;PMS_P1;PMS_P2;Temp;Humidity;BMP_temperature;BMP_pressure;BME280_temperature;BME280_humidity;BME280_pressure;Samples;Min_cycle;Max_cycle;Signal;HPM_P1;HPM_P2
2023/03/31 00:01:41;;;;;;;3.93;2.30;;;12.90;40.50;;;;;;10272847;28;20249;-73
2023/03/31 00:06:45;;;;;;;2.60;2.17;;;12.90;40.30;;;;;;10277367;28;20318;-73
2023/03/31 00:11:50;;;;;;;4.47;2.33;;;12.90;40.40;;;;;;10277565;28;20262;-73
2023/03/31 00:16:53;;;;;;;2.87;2.40;;;12.90;40.60;;;;;;10279332;28;20227;-73
2023/03/31 00:22:00;;;;;;;3.13;2.40;;;12.90;40.50;;;;;;10275935;28;20257;-75
2023/03/31 00:27:06;;;;;;;4.23;2.37;;;12.80;40.40;;;;;;10272183;28;20239;-75
2023/03/31 00:32:09;;;;;;;4.27;2.67;;;12.80;40.50;;;;;;10269393;28;20725;-75
2023/03/31 00:37:14;;;;;;;4.37;2.60;;;12.80;40.40;;;;;;10275931;28;20226;-75
2023/03/31 00:42:19;;;;;;;3.00;2.60;;;12.90;40.30;;;;;;10276953;28;20322;-75
2023/03/31 00:47:23;;;;;;;3.77;2.90;;;12.90;40.30;;;;;;10285461;28;20223;-75
2023/03/31 00:52:34;;;;;;;5.57;2.63;;;12.80;40.00;;;;;;10285254;28;20712;-75
2023/03/31 00:57:41;;;;;;;3.50;2.70;;;12.80;40.40;;;;;;10282804;28;20596;-75
2023/03/31 01:02:51;;;;;;;2.80;2.57;;;12.70;40.40;;;;;;10282660;28;20759;-75
2023/03/31 01:07:56;;;;;;;4.93;2.90;;;12.70;40.50;;;;;;10282763;28;20649;-75
2023/03/31 01:13:00;;;;;;;6.30;2.70;;;12.70;40.30;;;;;;10279659;28;20231;-75
2023/03/31 01:18:04;;;;;;;3.77;2.57;;;12.60;40.30;;;;;;10277193;28;20239;-75
2023/03/31 01:23:37;;;;;;;4.90;2.87;;;12.50;40.30;;;;;;10282313;28;20240;-75
2023/03/31 01:28:51;;;;;;;3.60;2.80;;;12.50;40.80;;;;;;10277539;28;20606;-76
2023/03/31 01:34:23;;;;;;;4.27;2.70;;;12.40;40.90;;;;;;10284356;28;20635;-75
2023/03/31 01:40:09;;;;;;;2.93;2.63;;;12.40;41.20;;;;;;10283296;28;20605;-75
2023/03/31 01:45:22;;;;;;;4.53;2.70;;;12.40;41.30;;;;;;10276873;28;20227;-75
2023/03/31 01:50:31;;;;;;;6.03;3.30;;;12.50;41.50;;;;;;10278359;28;20715;-75
2023/03/31 01:55:42;;;;;;;4.33;2.70;;;12.50;41.30;;;;;;10284648;28;20227;-75
2023/03/31 02:00:50;;;;;;;3.33;2.67;;;12.50;41.10;;;;;;10281846;28;20240;-75
2023/03/31 02:05:57;;;;;;;6.13;3.10;;;12.50;41.10;;;;;;10276513;28;20227;-75
2023/03/31 02:11:02;;;;;;;3.83;2.87;;;12.50;40.90;;;;;;10281495;28;20232;-75
2023/03/31 02:16:10;;;;;;;4.17;3.20;;;12.50;40.80;;;;;;10282747;28;20227;-75
2023/03/31 02:21:15;;;;;;;6.40;3.60;;;12.50;40.90;;;;;;10279880;28;20235;-75
2023/03/31 02:26:24;;;;;;;4.30;3.13;;;12.50;40.90;;;;;;10283542;28;20240;-75
2023/03/31 02:31:36;;;;;;;5.07;3.40;;;12.60;41.10;;;;;;10275824;28;20240;-75
2023/03/31 02:36:41;;;;;;;5.13;3.13;;;12.60;41.00;;;;;;10275731;28;20325;-75
2023/03/31 02:41:46;;;;;;;4.07;3.27;;;12.60;40.70;;;;;;10288672;28;20233;-75
2023/03/31 02:46:50;;;;;;;4.33;3.00;;;12.60;40.50;;;;;;10275394;28;20255;-75
2023/03/31 02:52:07;;;;;;;3.90;2.87;;;12.60;40.50;;;;;;10280074;28;20712;-75
2023/03/31 02:57:48;;;;;;;5.73;3.40;;;12.50;40.90;;;;;;10284498;28;20233;-75
2023/03/31 03:03:08;;;;;;;4.60;3.40;;;12.50;41.00;;;;;;10271539;28;20239;-75
2023/03/31 03:08:22;;;;;;;4.83;3.83;;;12.50;41.20;;;;;;10285149;28;20232;-75
2023/03/31 03:13:35;;;;;;;3.93;3.53;;;12.50;41.20;;;;;;10282331;28;20235;-75
2023/03/31 03:18:38;;;;;;;6.17;3.93;;;12.50;41.30;;;;;;10278378;28;20239;-75
2023/03/31 03:23:42;;;;;;;5.93;3.67;;;12.50;41.00;;;;;;10276925;28;20239;-76
2023/03/31 03:28:46;;;;;;;5.17;3.57;;;12.50;41.10;;;;;;10283206;28;20315;-75
2023/03/31 03:33:49;;;;;;;7.07;4.00;;;12.50;41.40;;;;;;10275724;28;20235;-75
2023/03/31 03:38:53;;;;;;;5.07;4.23;;;12.50;41.30;;;;;;10278364;28;20234;-76
2023/03/31 03:43:57;;;;;;;6.90;4.40;;;12.40;41.40;;;;;;10277321;28;20233;-76
2023/03/31 03:49:01;;;;;;;5.90;4.03;;;12.50;42.10;;;;;;10276212;28;20603;-76
2023/03/31 03:54:04;;;;;;;7.80;3.70;;;12.50;42.10;;;;;;10270494;28;20224;-75
2023/03/31 03:59:08;;;;;;;4.13;2.93;;;12.50;42.10;;;;;;10274547;28;20251;-76
2023/03/31 04:04:11;;;;;;;5.53;3.10;;;12.60;42.90;;;;;;10283125;28;20235;-76
2023/03/31 04:09:15;;;;;;;5.60;3.13;;;12.70;42.30;;;;;;10280896;28;20227;-76
2023/03/31 04:14:19;;;;;;;6.27;3.23;;;12.80;42.40;;;;;;10275417;28;20224;-73
2023/03/31 04:19:24;;;;;;;5.90;3.97;;;12.90;42.70;;;;;;10278673;28;20242;-73
2023/03/31 04:24:29;;;;;;;4.93;3.87;;;12.90;42.50;;;;;;10281153;28;20232;-73
2023/03/31 04:29:36;;;;;;;6.87;3.80;;;12.90;42.50;;;;;;10274053;28;20231;-73
2023/03/31 04:34:39;;;;;;;6.50;3.80;;;13.00;43.00;;;;;;10274422;28;20255;-73
2023/03/31 04:39:45;;;;;;;6.90;3.43;;;12.90;42.50;;;;;;10275250;28;20341;-73
2023/03/31 04:44:50;;;;;;;9.53;7.33;;;12.90;42.50;;;;;;10279315;28;20652;-73
2023/03/31 04:49:53;;;;;;;8.80;6.07;;;12.90;42.50;;;;;;10281513;28;20623;-73
2023/03/31 04:54:58;;;;;;;6.70;4.50;;;12.90;42.50;;;;;;10276296;28;20325;-73
2023/03/31 05:00:06;;;;;;;7.80;4.60;;;12.80;42.40;;;;;;10274850;28;20231;-73
2023/03/31 05:05:09;;;;;;;8.47;4.03;;;12.70;43.00;;;;;;10268543;28;20231;-73
2023/03/31 05:10:15;;;;;;;7.97;4.10;;;12.70;42.80;;;;;;10275375;28;20236;-73
2023/03/31 05:15:20;;;;;;;5.83;3.83;;;12.70;42.90;;;;;;10268806;28;20238;-72
2023/03/31 05:20:24;;;;;;;6.43;3.83;;;12.60;43.30;;;;;;10280379;28;20671;-72
2023/03/31 05:25:31;;;;;;;5.37;3.63;;;12.70;43.20;;;;;;10280890;28;20290;-72
2023/03/31 05:30:36;;;;;;;6.27;3.80;;;12.70;43.20;;;;;;10275917;28;20487;-72
2023/03/31 05:35:39;;;;;;;6.37;3.23;;;12.70;43.70;;;;;;10281882;28;20235;-72
2023/03/31 05:40:43;;;;;;;6.87;4.17;;;12.70;43.30;;;;;;10279218;28;20480;-71
2023/03/31 05:45:47;;;;;;;4.53;3.70;;;12.80;43.30;;;;;;10280377;28;20223;-75
2023/03/31 05:50:50;;;;;;;7.73;4.30;;;12.80;43.80;;;;;;10280640;28;20227;-74
2023/03/31 05:55:58;;;;;;;5.40;3.33;;;12.80;43.20;;;;;;10278454;28;20232;-75
2023/03/31 06:01:06;;;;;;;6.53;3.87;;;12.80;44.00;;;;;;10273644;28;20634;-75
2023/03/31 06:06:13;;;;;;;5.87;3.90;;;12.80;44.00;;;;;;10276801;28;20651;-74
2023/03/31 06:11:19;;;;;;;5.93;4.20;;;12.80;43.60;;;;;;10281732;28;20238;-72
2023/03/31 06:16:23;;;;;;;6.80;4.10;;;12.80;43.80;;;;;;10274633;28;20236;-72
2023/03/31 06:21:27;;;;;;;9.03;4.17;;;12.90;44.00;;;;;;10278085;28;20235;-75
2023/03/31 06:26:30;;;;;;;4.87;4.23;;;12.90;43.70;;;;;;10281879;28;20710;-73
2023/03/31 06:31:35;;;;;;;6.67;4.60;;;12.90;43.80;;;;;;10273106;28;20240;-73
2023/03/31 06:36:38;;;;;;;6.77;3.80;;;12.90;44.30;;;;;;10281763;28;20262;-73
2023/03/31 06:41:41;;;;;;;4.90;4.10;;;12.90;44.00;;;;;;10279297;28;20227;-73
2023/03/31 06:46:46;;;;;;;6.97;4.77;;;12.90;44.00;;;;;;10288835;28;20228;-73
2023/03/31 06:51:49;;;;;;;8.93;4.27;;;13.00;45.60;;;;;;10270899;28;20322;-73
2023/03/31 06:56:52;;;;;;;7.37;4.00;;;13.00;44.80;;;;;;10279528;28;20255;-74
2023/03/31 07:01:57;;;;;;;6.27;4.57;;;13.10;44.20;;;;;;10272679;28;20285;-72
2023/03/31 07:07:00;;;;;;;6.60;5.70;;;13.10;44.40;;;;;;10276869;28;20306;-72
2023/03/31 07:12:04;;;;;;;7.07;4.67;;;13.10;44.00;;;;;;10274408;28;20246;-72
2023/03/31 07:17:09;;;;;;;10.57;9.00;;;13.10;44.10;;;;;;10276807;28;20228;-72
2023/03/31 07:22:12;;;;;;;10.27;8.93;;;13.10;44.40;;;;;;10272511;28;20232;-72
2023/03/31 07:27:15;;;;;;;6.77;5.27;;;13.00;44.00;;;;;;10272646;28;20711;-71
2023/03/31 07:32:21;;;;;;;6.97;4.40;;;13.10;44.20;;;;;;10273124;28;20231;-76
2023/03/31 07:37:24;;;;;;;6.87;4.57;;;13.00;44.80;;;;;;10275957;28;20572;-71
2023/03/31 07:42:27;;;;;;;5.60;4.80;;;13.00;44.70;;;;;;10277951;28;20635;-72
2023/03/31 07:47:32;;;;;;;5.80;4.57;;;12.90;44.70;;;;;;10274871;28;20734;-69
2023/03/31 07:52:36;;;;;;;7.27;5.57;;;12.90;45.50;;;;;;10276110;28;20314;-69
2023/03/31 07:57:40;;;;;;;7.80;4.77;;;12.90;45.20;;;;;;10276016;28;20243;-68
2023/03/31 08:02:44;;;;;;;10.93;9.03;;;12.90;45.20;;;;;;10269486;28;20314;-69
2023/03/31 08:07:50;;;;;;;8.30;7.03;;;12.90;45.70;;;;;;10266650;28;20234;-72
2023/03/31 08:12:54;;;;;;;6.17;4.97;;;12.90;45.70;;;;;;10265870;28;20223;-70
2023/03/31 08:17:59;;;;;;;6.73;4.43;;;13.00;45.60;;;;;;10262597;28;20238;-70
2023/03/31 08:23:04;;;;;;;6.50;5.17;;;13.10;46.30;;;;;;10271264;28;20310;-71
2023/03/31 08:28:09;;;;;;;7.43;4.63;;;13.20;45.80;;;;;;10270508;28;20720;-70
2023/03/31 08:33:14;;;;;;;5.30;4.43;;;13.30;45.60;;;;;;10261685;28;20232;-70
2023/03/31 08:38:17;;;;;;;7.17;4.27;;;13.40;46.10;;;;;;10272071;28;20540;-69
2023/03/31 08:43:28;;;;;;;5.87;4.17;;;13.50;45.50;;;;;;10273574;28;20238;-79
2023/03/31 08:48:43;;;;;;;5.93;4.30;;;13.50;46.60;;;;;;10272397;28;20633;-78
2023/03/31 08:53:51;;;;;;;7.80;4.67;;;13.60;46.40;;;;;;10274965;28;20229;-78
2023/03/31 08:59:01;;;;;;;6.63;6.03;;;13.50;46.20;;;;;;10277637;28;20589;-77
2023/03/31 09:04:22;;;;;;;5.03;4.33;;;13.50;45.70;;;;;;10282263;28;20223;-77
2023/03/31 09:09:33;;;;;;;3.87;3.30;;;13.50;46.40;;;;;;10275348;28;20258;-79
2023/03/31 09:14:39;;;;;;;3.53;3.23;;;13.50;47.00;;;;;;10278294;28;20234;-78
2023/03/31 09:19:48;;;;;;;3.97;3.50;;;13.60;47.30;;;;;;10286404;28;20273;-79
2023/03/31 09:24:57;;;;;;;12.67;10.17;;;13.70;47.10;;;;;;10279373;28;20230;-78
2023/03/31 09:30:04;;;;;;;5.43;4.17;;;13.70;46.90;;;;;;10281473;28;20223;-78
2023/03/31 09:35:17;;;;;;;4.47;3.70;;;13.90;47.10;;;;;;10278909;28;20238;-77
2023/03/31 09:40:22;;;;;;;3.43;3.13;;;14.00;47.50;;;;;;10282413;28;20239;-73
2023/03/31 09:45:26;;;;;;;3.47;3.03;;;14.20;47.40;;;;;;10282768;28;20781;-73
2023/03/31 09:50:33;;;;;;;3.60;2.60;;;14.50;47.80;;;;;;10277970;28;20247;-74
2023/03/31 09:55:44;;;;;;;2.83;2.00;;;14.80;46.90;;;;;;10280855;28;20238;-73
2023/03/31 10:00:59;;;;;;;2.70;2.50;;;15.10;45.90;;;;;;10279009;28;20235;-73
2023/03/31 10:06:10;;;;;;;1.80;1.70;;;15.40;46.20;;;;;;10283134;28;20231;-74
2023/03/31 10:11:13;;;;;;;3.27;1.80;;;15.70;45.40;;;;;;10281141;28;20227;-74
2023/03/31 10:16:23;;;;;;;2.00;1.70;;;16.10;45.30;;;;;;10279140;28;20231;-74
2023/03/31 10:21:37;;;;;;;2.23;2.03;;;16.30;43.90;;;;;;10271082;28;20235;-75
2023/03/31 10:26:40;;;;;;;2.17;1.57;;;16.40;42.90;;;;;;10276783;28;20238;-73
2023/03/31 10:31:44;;;;;;;1.60;1.50;;;16.60;44.00;;;;;;10276678;28;20232;-73
2023/03/31 10:36:51;;;;;;;2.00;1.37;;;16.80;43.10;;;;;;10284337;28;20235;-71
2023/03/31 10:41:54;;;;;;;2.03;1.40;;;17.00;42.20;;;;;;10276009;28;20231;-77
2023/03/31 10:47:05;;;;;;;1.33;1.23;;;17.20;41.10;;;;;;10275981;28;20376;-76
2023/03/31 10:52:18;;;;;;;1.30;1.20;;;17.30;41.20;;;;;;10275477;28;20231;-76
2023/03/31 10:57:37;;;;;;;1.13;1.00;;;17.40;40.40;;;;;;10280045;28;20234;-76
2023/03/31 11:03:11;;;;;;;1.30;1.20;;;17.60;41.20;;;;;;10280350;28;20255;-76
2023/03/31 11:08:29;;;;;;;1.17;1.00;;;17.70;40.50;;;;;;10278535;28;20700;-76
2023/03/31 11:13:38;;;;;;;1.60;1.03;;;17.70;40.10;;;;;;10276510;28;20895;-76
2023/03/31 11:19:02;;;;;;;1.50;1.10;;;17.80;40.10;;;;;;10264438;28;20641;-76
2023/03/31 11:24:17;;;;;;;2.17;0.97;;;17.80;39.60;;;;;;10261630;28;20227;-76
2023/03/31 11:29:32;;;;;;;1.23;1.00;;;17.80;38.20;;;;;;10257833;28;20227;-76
2023/03/31 11:34:51;;;;;;;2.00;1.17;;;17.80;39.10;;;;;;10260433;28;20219;-75
2023/03/31 11:40:09;;;;;;;1.70;1.03;;;17.80;37.70;;;;;;10264359;28;20256;-76
2023/03/31 11:45:16;;;;;;;1.10;1.00;;;17.70;37.80;;;;;;10262755;28;20577;-75
2023/03/31 11:50:22;;;;;;;1.37;0.90;;;17.80;38.90;;;;;;10267284;28;20645;-75
2023/03/31 11:55:30;;;;;;;1.60;1.00;;;17.80;38.50;;;;;;10265945;28;20744;-75
2023/03/31 12:00:38;;;;;;;1.20;1.00;;;18.00;39.30;;;;;;10262501;28;20738;-75
2023/03/31 12:05:45;;;;;;;1.40;1.10;;;18.10;38.60;;;;;;10266274;28;20235;-75
2023/03/31 12:10:54;;;;;;;1.10;1.10;;;18.30;38.20;;;;;;10269291;28;20235;-75
2023/03/31 12:16:04;;;;;;;3.03;1.10;;;18.40;37.60;;;;;;10261820;28;20270;-72
2023/03/31 12:21:10;;;;;;;2.07;1.20;;;18.60;37.80;;;;;;10265661;28;20224;-69
2023/03/31 12:26:29;;;;;;;1.90;1.33;;;18.80;36.60;;;;;;10266926;28;20231;-69
2023/03/31 12:31:35;;;;;;;1.10;1.00;;;18.90;35.50;;;;;;10254326;28;20611;-72
2023/03/31 12:36:51;;;;;;;1.90;1.20;;;19.00;36.90;;;;;;10256700;28;20282;-69
2023/03/31 12:42:31;;;;;;;1.53;1.00;;;19.20;34.00;;;;;;10263218;28;20243;-69
2023/03/31 12:48:01;;;;;;;1.73;1.00;;;19.20;34.10;;;;;;10241721;28;20225;-69
2023/03/31 12:53:13;;;;;;;2.07;1.07;;;19.30;33.30;;;;;;10262420;28;20611;-69
2023/03/31 12:58:41;;;;;;;1.20;0.80;;;19.20;33.00;;;;;;10265476;28;20730;-69
2023/03/31 13:03:50;;;;;;;1.30;1.00;;;19.20;33.40;;;;;;10265926;28;20235;-69
2023/03/31 13:08:55;;;;;;;1.10;0.90;;;19.20;32.50;;;;;;10262068;28;20236;-68
2023/03/31 13:14:03;;;;;;;1.10;0.90;;;19.10;32.90;;;;;;10256567;28;20231;-69
2023/03/31 13:19:07;;;;;;;1.33;1.10;;;19.00;32.20;;;;;;10258212;28;20331;-68
2023/03/31 13:24:10;;;;;;;2.20;0.90;;;18.80;34.00;;;;;;10254054;28;20244;-69
2023/03/31 13:29:23;;;;;;;1.43;0.80;;;18.50;32.70;;;;;;10257969;28;20380;-69
2023/03/31 13:34:29;;;;;;;0.67;0.57;;;18.20;30.90;;;;;;10264321;28;20234;-68
2023/03/31 13:40:11;;;;;;;0.70;0.70;;;17.70;31.00;;;;;;10267516;28;20231;-68
2023/03/31 13:45:26;;;;;;;0.70;0.70;;;17.20;31.90;;;;;;10230493;28;20693;-68
2023/03/31 13:50:58;;;;;;;0.70;0.70;;;16.70;32.70;;;;;;10269273;28;20227;-69
2023/03/31 13:56:19;;;;;;;1.50;0.63;;;16.40;33.30;;;;;;10265489;28;20223;-68
2023/03/31 14:01:51;;;;;;;0.97;0.63;;;16.20;33.40;;;;;;10268869;28;20255;-68
2023/03/31 14:06:58;;;;;;;0.60;0.60;;;16.10;33.90;;;;;;10267962;28;20225;-68
2023/03/31 14:12:18;;;;;;;0.83;0.60;;;16.20;33.40;;;;;;10268889;28;20660;-68
2023/03/31 14:17:26;;;;;;;0.70;0.67;;;16.20;34.00;;;;;;10269417;28;20277;-78
2023/03/31 14:22:43;;;;;;;0.90;0.73;;;16.30;33.30;;;;;;10263928;28;20286;-69
2023/03/31 14:28:01;;;;;;;1.73;0.80;;;16.40;33.30;;;;;;10260279;28;20577;-68
2023/03/31 14:33:15;;;;;;;1.00;0.80;;;16.60;32.40;;;;;;10266215;28;20235;-69
2023/03/31 14:38:21;;;;;;;0.90;0.80;;;16.70;32.50;;;;;;10268530;28;20234;-69
2023/03/31 14:43:28;;;;;;;2.50;0.80;;;16.90;32.90;;;;;;10270171;28;20242;-68
2023/03/31 14:48:37;;;;;;;1.70;0.80;;;17.00;32.60;;;;;;10278162;28;20798;-69
2023/03/31 14:53:42;;;;;;;0.80;0.80;;;17.10;31.30;;;;;;10279259;28;20250;-70
2023/03/31 14:58:50;;;;;;;1.70;0.90;;;17.20;32.10;;;;;;10273348;28;20615;-69
2023/03/31 15:03:55;;;;;;;2.73;1.10;;;17.20;31.70;;;;;;10279288;28;20223;-68
2023/03/31 15:09:03;;;;;;;3.93;1.00;;;17.10;31.70;;;;;;10271954;28;20260;-67
2023/03/31 15:14:09;;;;;;;0.93;0.80;;;17.10;31.80;;;;;;10276023;28;20236;-69
2023/03/31 15:19:16;;;;;;;2.27;0.90;;;17.10;32.40;;;;;;10278981;28;20239;-69
2023/03/31 15:24:20;;;;;;;1.83;1.07;;;17.10;32.20;;;;;;10280154;28;20231;-68
2023/03/31 15:29:27;;;;;;;1.50;1.10;;;17.20;33.00;;;;;;10282375;28;20232;-69
2023/03/31 15:34:35;;;;;;;1.43;1.00;;;17.20;32.20;;;;;;10270914;28;20232;-70
2023/03/31 15:39:39;;;;;;;2.70;1.30;;;17.30;32.10;;;;;;10281725;28;20236;-67
2023/03/31 15:44:46;;;;;;;1.50;1.00;;;17.40;32.70;;;;;;10277150;28;20227;-70
2023/03/31 15:49:52;;;;;;;2.50;1.00;;;17.50;31.10;;;;;;10272529;28;20231;-70
2023/03/31 15:54:57;;;;;;;3.23;1.13;;;17.50;31.30;;;;;;10280658;28;20226;-69
2023/03/31 16:00:01;;;;;;;1.83;1.10;;;17.50;31.60;;;;;;10275636;28;20596;-70
2023/03/31 16:05:08;;;;;;;2.70;1.40;;;17.40;31.80;;;;;;10271243;28;20238;-70
2023/03/31 16:10:34;;;;;;;3.10;1.10;;;17.40;31.00;;;;;;10274828;28;20233;-70
2023/03/31 16:15:42;;;;;;;2.17;1.00;;;17.30;31.50;;;;;;10276671;28;20233;-70
2023/03/31 16:20:54;;;;;;;1.57;1.20;;;17.00;32.30;;;;;;10276779;28;20239;-70
2023/03/31 16:25:58;;;;;;;1.77;0.97;;;16.70;32.90;;;;;;10274578;28;20306;-70
2023/03/31 16:31:03;;;;;;;1.90;1.03;;;16.50;33.40;;;;;;10270257;28;20242;-73
2023/03/31 16:36:11;;;;;;;1.77;0.90;;;16.40;33.30;;;;;;10272657;28;20312;-71
2023/03/31 16:41:16;;;;;;;2.33;1.07;;;16.20;33.20;;;;;;10274061;28;20278;-70
2023/03/31 16:46:19;;;;;;;2.07;1.00;;;16.10;33.10;;;;;;10275538;28;20346;-70
2023/03/31 16:51:25;;;;;;;2.87;1.30;;;15.90;32.90;;;;;;10266602;28;20235;-69
2023/03/31 16:56:28;;;;;;;2.20;1.10;;;15.80;33.20;;;;;;10273543;28;20231;-69
2023/03/31 17:01:31;;;;;;;1.80;1.20;;;15.70;33.30;;;;;;10269618;28;20239;-69
2023/03/31 17:06:35;;;;;;;2.47;1.10;;;15.60;33.80;;;;;;10274882;28;20525;-69
2023/03/31 17:11:39;;;;;;;1.20;1.10;;;15.40;33.60;;;;;;10272861;28;20719;-70
2023/03/31 17:16:42;;;;;;;2.57;1.10;;;15.40;33.70;;;;;;10275190;28;20234;-70
2023/03/31 17:21:52;;;;;;;1.73;1.07;;;15.30;33.70;;;;;;10273848;28;20943;-70
2023/03/31 17:26:56;;;;;;;2.47;1.07;;;15.30;33.70;;;;;;10281056;28;20592;-67
2023/03/31 17:31:59;;;;;;;2.23;1.10;;;15.20;34.50;;;;;;10272908;28;20340;-70
2023/03/31 17:37:04;;;;;;;1.60;1.20;;;15.20;34.00;;;;;;10278892;28;20228;-69
2023/03/31 17:42:07;;;;;;;0.83;0.80;;;15.10;33.90;;;;;;10277701;28;20620;-70
2023/03/31 17:47:10;;;;;;;5.07;3.67;;;15.10;33.90;;;;;;10282195;28;20696;-69
2023/03/31 17:52:15;;;;;;;1.73;1.30;;;15.00;33.90;;;;;;10281688;28;20329;-69
2023/03/31 17:57:18;;;;;;;2.03;1.77;;;15.00;34.00;;;;;;10280532;28;20681;-70
2023/03/31 18:02:22;;;;;;;1.73;1.00;;;14.90;33.90;;;;;;10267326;28;20406;-69
2023/03/31 18:07:27;;;;;;;2.27;1.80;;;14.80;34.00;;;;;;10272841;28;20231;-69
2023/03/31 18:12:30;;;;;;;1.20;1.10;;;14.80;33.90;;;;;;10277970;28;20241;-69
2023/03/31 18:17:35;;;;;;;2.43;1.20;;;14.70;33.80;;;;;;10279498;28;20243;-69
2023/03/31 18:22:39;;;;;;;1.90;0.90;;;14.60;33.90;;;;;;10281288;28;20240;-69
2023/03/31 18:27:43;;;;;;;1.40;0.97;;;14.50;33.90;;;;;;10282005;28;20227;-68
2023/03/31 18:32:46;;;;;;;1.80;1.30;;;14.40;33.90;;;;;;10269336;28;20742;-69
2023/03/31 18:37:51;;;;;;;1.30;1.20;;;14.30;34.10;;;;;;10272909;28;20286;-73
2023/03/31 18:42:56;;;;;;;2.87;0.90;;;14.10;34.10;;;;;;10270718;28;20279;-69
2023/03/31 18:48:01;;;;;;;2.07;1.40;;;14.10;34.30;;;;;;10276027;28;20803;-70
2023/03/31 18:53:05;;;;;;;1.77;1.10;;;13.90;34.40;;;;;;10277731;28;20243;-71
2023/03/31 18:58:09;;;;;;;1.67;0.93;;;13.80;34.50;;;;;;10277812;28;20235;-70
2023/03/31 19:03:12;;;;;;;1.27;0.80;;;13.70;34.70;;;;;;10272773;28;20232;-70
2023/03/31 19:08:17;;;;;;;1.10;1.00;;;13.70;34.90;;;;;;10275524;28;20708;-70
2023/03/31 19:13:20;;;;;;;1.17;0.93;;;13.60;35.00;;;;;;10280971;28;20239;-70
2023/03/31 19:18:23;;;;;;;1.23;0.83;;;13.60;35.10;;;;;;10278882;28;20248;-70
2023/03/31 19:23:31;;;;;;;0.90;0.83;;;13.60;35.20;;;;;;10271142;28;20860;-70
2023/03/31 19:28:34;;;;;;;1.77;0.90;;;13.50;35.20;;;;;;10274313;28;20232;-70
2023/03/31 19:33:38;;;;;;;2.30;1.20;;;13.50;35.20;;;;;;10263846;28;20618;-73
2023/03/31 19:38:42;;;;;;;1.10;1.00;;;13.50;35.30;;;;;;10268281;28;20739;-73
2023/03/31 19:43:46;;;;;;;2.07;0.90;;;13.50;35.30;;;;;;10271831;28;20263;-73
2023/03/31 19:48:50;;;;;;;1.13;0.80;;;13.50;35.10;;;;;;10261754;28;20317;-72
2023/03/31 19:53:55;;;;;;;1.23;0.80;;;13.40;35.20;;;;;;10265167;28;20242;-72
2023/03/31 19:58:59;;;;;;;1.47;0.90;;;13.30;35.20;;;;;;10259389;28;20224;-72
2023/03/31 20:04:02;;;;;;;1.07;0.90;;;13.20;35.30;;;;;;10264863;28;20234;-71
2023/03/31 20:09:06;;;;;;;0.93;0.80;;;13.10;35.50;;;;;;10263209;28;20242;-72
2023/03/31 20:14:10;;;;;;;1.20;0.90;;;13.10;35.60;;;;;;10266094;28;20227;-72
2023/03/31 20:19:15;;;;;;;1.70;0.90;;;13.10;35.60;;;;;;10271920;28;20239;-72
2023/03/31 20:24:20;;;;;;;2.03;1.30;;;13.10;35.50;;;;;;10264538;28;20220;-72
2023/03/31 20:29:24;;;;;;;2.07;1.40;;;13.10;35.60;;;;;;10271512;28;20232;-72
2023/03/31 20:34:27;;;;;;;1.57;1.10;;;13.10;35.50;;;;;;10274156;28;20215;-72
2023/03/31 20:39:31;;;;;;;1.90;1.30;;;13.10;35.50;;;;;;10281128;28;20238;-73
2023/03/31 20:44:35;;;;;;;2.30;1.23;;;13.10;35.50;;;;;;10273669;28;20239;-73
2023/03/31 20:49:38;;;;;;;3.07;2.30;;;13.10;35.40;;;;;;10267068;28;20493;-73
2023/03/31 20:54:42;;;;;;;2.87;1.67;;;13.20;35.50;;;;;;10272991;28;20593;-73
2023/03/31 20:59:46;;;;;;;2.67;1.73;;;13.20;35.50;;;;;;10280563;28;20234;-73
2023/03/31 21:04:49;;;;;;;3.80;1.50;;;13.20;35.50;;;;;;10278671;28;20228;-73
2023/03/31 21:09:54;;;;;;;1.73;1.27;;;13.20;35.50;;;;;;10281768;28;20228;-73
2023/03/31 21:14:57;;;;;;;2.33;1.40;;;13.20;35.40;;;;;;10277776;28;20593;-73
2023/03/31 21:20:02;;;;;;;1.47;1.10;;;13.20;35.30;;;;;;10286760;28;20259;-73
2023/03/31 21:25:08;;;;;;;1.87;1.20;;;13.20;35.30;;;;;;10287406;28;20235;-73
2023/03/31 21:30:12;;;;;;;1.00;0.90;;;13.20;35.50;;;;;;10288933;28;20262;-73
2023/03/31 21:35:16;;;;;;;2.20;1.10;;;13.10;35.30;;;;;;10286315;28;20586;-73
2023/03/31 21:40:21;;;;;;;1.97;1.00;;;13.10;35.40;;;;;;10293467;28;20240;-73
2023/03/31 21:45:24;;;;;;;2.63;1.20;;;13.10;35.50;;;;;;10287147;28;20700;-73
2023/03/31 21:50:27;;;;;;;1.17;0.87;;;13.10;35.50;;;;;;10285034;28;20807;-73
2023/03/31 21:55:32;;;;;;;1.37;0.83;;;13.00;35.30;;;;;;10283944;28;20712;-73
2023/03/31 22:00:36;;;;;;;2.40;0.90;;;13.00;35.50;;;;;;10285844;28;20239;-73
2023/03/31 22:05:39;;;;;;;0.80;0.80;;;13.00;35.50;;;;;;10280709;28;20227;-73
2023/03/31 22:10:48;;;;;;;1.40;0.97;;;13.00;35.40;;;;;;10276073;28;20997;-73
2023/03/31 22:15:51;;;;;;;1.67;1.00;;;13.00;35.40;;;;;;10285636;28;20227;-73
2023/03/31 22:20:55;;;;;;;1.73;0.80;;;13.00;35.40;;;;;;10281604;28;20310;-73
2023/03/31 22:26:00;;;;;;;1.67;0.90;;;13.00;35.40;;;;;;10293263;28;20231;-73
2023/03/31 22:31:03;;;;;;;1.57;1.03;;;13.00;35.50;;;;;;10283699;28;20234;-72
2023/03/31 22:36:07;;;;;;;2.17;1.00;;;12.90;35.50;;;;;;10288231;28;20595;-73
2023/03/31 22:41:12;;;;;;;2.87;1.10;;;12.90;35.40;;;;;;10281998;28;20266;-73
2023/03/31 22:46:15;;;;;;;1.70;0.87;;;12.90;35.40;;;;;;10288554;28;20236;-73
2023/03/31 22:51:19;;;;;;;1.47;0.80;;;12.90;35.60;;;;;;10294155;28;20252;-73
2023/03/31 22:56:24;;;;;;;2.23;0.90;;;12.90;35.60;;;;;;10292869;28;20696;-73
2023/03/31 23:01:28;;;;;;;2.23;0.80;;;12.90;35.60;;;;;;10285592;28;20235;-73
2023/03/31 23:06:32;;;;;;;1.57;0.80;;;12.90;35.60;;;;;;10291331;28;20771;-73
2023/03/31 23:11:39;;;;;;;2.17;0.87;;;12.90;35.70;;;;;;10290651;28;20327;-73
2023/03/31 23:16:42;;;;;;;2.27;0.80;;;12.90;35.70;;;;;;10285902;28;20257;-73
2023/03/31 23:21:46;;;;;;;1.20;0.80;;;12.90;35.70;;;;;;10288596;28;20599;-73
2023/03/31 23:26:50;;;;;;;1.80;0.80;;;12.90;35.70;;;;;;10289729;28;20235;-73
2023/03/31 23:31:54;;;;;;;1.37;0.70;;;12.90;35.80;;;;;;10291663;28;20231;-73
2023/03/31 23:36:57;;;;;;;1.03;0.80;;;12.90;35.60;;;;;;10291851;28;20224;-73
2023/03/31 23:42:02;;;;;;;0.93;0.60;;;12.90;35.70;;;;;;10291357;28;20337;-73
2023/03/31 23:47:05;;;;;;;0.70;0.70;;;12.80;35.70;;;;;;10296894;28;20231;-72
2023/03/31 23:52:08;;;;;;;0.70;0.70;;;12.80;35.70;;;;;;10282559;28;20248;-73
2023/03/31 23:57:13;;;;;;;1.27;0.70;;;12.80;35.80;;;;;;10286347;28;20235;-73
